Terminal Aerodrome Forecast
Issued by NWS

Current Version | Previous Version | Text Only | Print | Product List | Glossary On
Versions: 1 2 3 4 5 6 7 8 9 10 11 12 13 14 15 16 17 18 19 20 21 22 23 24 25 26 27 28 29 30 31 32 33 34 35 36 37 38 39 40 41 42 43 44 45 46 47
000
FTUS43 KDMX 080023 AAA
TAFFOD
TAF AMD
KFOD 080023Z 0800/0824 28012G18KT P6SM BKN025 OVC040
     FM080200 30014G22KT 5SM -SHSN OVC020
     FM080500 32018G30KT 1SM -SHSN BLSN SCT006 OVC015
     FM081600 34019G32KT 1/2SM SHSN BLSN OVC010
     FM082300 33014G25KT 4SM BLSN OVC013=

USA.gov is the U.S. government's official web portal to all federal, state and local government web resources and services.